createdAt,value
2022-08-16T00:00:26.813Z,22.30
2022-08-16T00:02:58.028Z,22.40
2022-08-16T00:05:28.388Z,22.40
2022-08-16T00:08:06.628Z,22.50
2022-08-16T00:10:37.159Z,22.50
2022-08-16T00:13:10.599Z,22.40
2022-08-16T00:15:51.371Z,22.50
2022-08-16T00:18:28.665Z,22.50
2022-08-16T00:21:00.326Z,22.50
2022-08-16T00:23:39.996Z,22.60
2022-08-16T00:26:33.653Z,22.60
2022-08-16T00:28:59.344Z,22.50
2022-08-16T00:31:58.712Z,22.50
2022-08-16T00:34:20.129Z,22.40
2022-08-16T00:36:49.653Z,22.40
2022-08-16T00:39:26.338Z,22.40
2022-08-16T00:41:56.226Z,22.40
2022-08-16T00:44:32.854Z,22.30
2022-08-16T00:47:08.556Z,22.30
2022-08-16T00:49:39.730Z,22.20
2022-08-16T00:52:30.202Z,22.20
2022-08-16T00:55:01.697Z,22.20
2022-08-16T00:57:58.236Z,22.20
2022-08-16T01:00:20.438Z,22.20
2022-08-16T01:02:53.129Z,22.20
2022-08-16T01:05:23.846Z,22.20
2022-08-16T01:07:55.189Z,22.20
2022-08-16T01:10:32.404Z,22.20
2022-08-16T01:13:07.214Z,22.20
2022-08-16T01:15:43.408Z,22.20
2022-08-16T01:18:40.208Z,22.30
2022-08-16T01:21:43.294Z,22.30
2022-08-16T01:24:53.210Z,22.40
2022-08-16T01:27:19.083Z,22.40
2022-08-16T01:29:58.409Z,22.40
2022-08-16T01:32:35.908Z,22.40
2022-08-16T01:35:16.715Z,22.30
2022-08-16T01:37:53.917Z,22.20
2022-08-16T01:40:31.445Z,22.10
2022-08-16T01:43:01.010Z,22.10
2022-08-16T01:45:39.660Z,22.00
2022-08-16T01:48:19.454Z,22.00
2022-08-16T01:51:08.447Z,21.90
2022-08-16T01:53:41.123Z,21.90
2022-08-16T01:56:23.397Z,21.90
2022-08-16T01:58:57.076Z,21.80
2022-08-16T02:01:28.484Z,21.80
2022-08-16T02:04:11.112Z,21.80
2022-08-16T02:06:46.879Z,21.80
2022-08-16T02:09:25.509Z,21.80
2022-08-16T02:12:49.610Z,21.80
2022-08-16T02:14:59.564Z,21.80
2022-08-16T02:17:33.692Z,21.90
2022-08-16T02:20:12.116Z,21.90
2022-08-16T02:22:41.846Z,21.90
2022-08-16T02:25:15.013Z,21.90
2022-08-16T02:27:50.667Z,21.90
2022-08-16T02:30:37.274Z,21.90
2022-08-16T02:33:15.455Z,21.90
2022-08-16T02:35:54.386Z,21.90
2022-08-16T02:38:33.048Z,21.90
2022-08-16T02:41:09.584Z,21.80
2022-08-16T02:43:42.059Z,21.80
2022-08-16T02:46:11.938Z,21.80
2022-08-16T02:48:49.149Z,21.80
2022-08-16T02:51:23.355Z,21.80
2022-08-16T02:53:53.484Z,21.80
2022-08-16T02:56:25.451Z,21.80
2022-08-16T02:59:03.630Z,21.70
2022-08-16T03:01:44.829Z,21.70
2022-08-16T03:04:40.838Z,21.70
2022-08-16T03:07:15.679Z,21.70
2022-08-16T03:09:51.041Z,21.60
2022-08-16T03:12:30.269Z,21.50
2022-08-16T03:15:10.323Z,21.50
2022-08-16T03:17:53.213Z,21.40
2022-08-16T03:20:32.442Z,21.30
2022-08-16T03:23:04.287Z,21.30
2022-08-16T03:25:40.899Z,21.30
2022-08-16T03:28:14.027Z,21.30
2022-08-16T03:30:51.594Z,21.20
2022-08-16T03:33:23.228Z,21.20
2022-08-16T03:36:30.117Z,21.20
2022-08-16T03:38:54.447Z,21.30
2022-08-16T03:41:29.480Z,21.40
2022-08-16T03:44:44.734Z,21.40
2022-08-16T03:47:10.152Z,21.40
2022-08-16T03:49:40.943Z,21.40
2022-08-16T03:52:13.424Z,21.30
2022-08-16T03:54:52.946Z,21.30
2022-08-16T03:57:23.467Z,21.30
2022-08-16T03:59:53.998Z,21.30
2022-08-16T04:02:31.514Z,21.20
2022-08-16T04:05:03.107Z,21.20
2022-08-16T04:07:34.020Z,21.20
2022-08-16T04:10:36.397Z,21.10
2022-08-16T04:12:59.351Z,21.10
2022-08-16T04:15:31.687Z,21.00
2022-08-16T04:18:24.622Z,21.00
2022-08-16T04:20:56.461Z,20.80
2022-08-16T04:23:28.883Z,20.90
2022-08-16T04:26:01.839Z,20.70
2022-08-16T04:28:53.568Z,20.70
2022-08-16T04:31:21.454Z,20.70
2022-08-16T04:33:53.072Z,20.70
2022-08-16T04:36:25.022Z,20.70
2022-08-16T04:38:55.278Z,20.80
2022-08-16T04:41:32.701Z,20.90
2022-08-16T04:44:32.356Z,20.90
2022-08-16T04:47:03.321Z,20.90
2022-08-16T04:49:52.302Z,20.90
2022-08-16T04:52:34.815Z,21.00
2022-08-16T04:55:11.980Z,20.90
2022-08-16T04:57:43.322Z,20.90
2022-08-16T05:00:32.531Z,20.80
2022-08-16T05:03:22.289Z,20.90
2022-08-16T05:05:59.821Z,20.90
2022-08-16T05:08:34.503Z,20.90
2022-08-16T05:11:20.187Z,21.00
2022-08-16T05:13:50.797Z,21.00
2022-08-16T05:16:29.911Z,21.10
2022-08-16T05:19:11.656Z,21.20
2022-08-16T05:21:54.140Z,21.10
2022-08-16T05:24:25.048Z,21.10
2022-08-16T05:26:57.844Z,21.20
2022-08-16T05:30:00.066Z,21.30
2022-08-16T05:32:32.351Z,21.40
2022-08-16T05:35:07.686Z,21.40
2022-08-16T05:37:44.887Z,21.40
2022-08-16T05:40:17.114Z,21.50
2022-08-16T05:42:49.536Z,21.40
2022-08-16T05:45:21.472Z,21.40
2022-08-16T05:47:59.683Z,21.40
2022-08-16T05:50:38.126Z,21.50
2022-08-16T05:53:12.282Z,21.50
2022-08-16T05:55:57.612Z,21.60
2022-08-16T05:58:32.984Z,21.60
2022-08-16T06:01:03.425Z,21.70
2022-08-16T06:03:37.448Z,21.60
2022-08-16T06:06:14.275Z,21.70
2022-08-16T06:08:58.916Z,21.70
2022-08-16T06:11:28.583Z,21.80
2022-08-16T06:14:02.137Z,21.80
2022-08-16T06:16:40.551Z,21.80
2022-08-16T06:19:09.921Z,21.90
2022-08-16T06:21:45.429Z,21.90
2022-08-16T06:24:53.814Z,21.90
2022-08-16T06:27:15.694Z,21.90
2022-08-16T06:29:50.291Z,21.90
2022-08-16T06:32:27.771Z,21.90
2022-08-16T06:35:02.061Z,22.00
2022-08-16T06:37:37.590Z,22.20
2022-08-16T06:40:15.992Z,22.20
2022-08-16T06:42:57.176Z,22.30
2022-08-16T06:45:47.001Z,22.30
2022-08-16T06:48:33.093Z,22.50
2022-08-16T06:51:06.177Z,22.60
2022-08-16T06:53:37.059Z,22.70
2022-08-16T06:56:14.708Z,22.80
2022-08-16T06:59:11.412Z,23.00
2022-08-16T07:01:53.676Z,23.20
2022-08-16T07:04:31.721Z,23.30
2022-08-16T07:07:09.542Z,23.50
2022-08-16T07:09:40.443Z,23.80
2022-08-16T07:12:15.388Z,24.10
2022-08-16T07:14:47.802Z,24.40
2022-08-16T07:17:21.524Z,24.60
2022-08-16T07:20:04.078Z,24.80
2022-08-16T07:22:58.673Z,25.00
2022-08-16T07:25:40.324Z,25.20
2022-08-16T07:28:20.507Z,25.30
2022-08-16T07:30:54.956Z,25.40
2022-08-16T07:33:52.258Z,25.60
2022-08-16T07:36:26.366Z,25.70
2022-08-16T07:38:58.232Z,25.70
2022-08-16T07:41:30.258Z,25.60
2022-08-16T07:44:16.373Z,25.30
2022-08-16T07:46:47.372Z,25.20
2022-08-16T07:49:25.570Z,25.00
2022-08-16T07:52:01.885Z,25.00
2022-08-16T07:54:49.027Z,25.10
2022-08-16T07:57:24.151Z,25.20
2022-08-16T07:59:57.561Z,25.40
2022-08-16T08:02:28.041Z,25.40
2022-08-16T08:04:59.870Z,25.50
2022-08-16T08:07:32.900Z,25.60
2022-08-16T08:10:10.880Z,25.80
2022-08-16T08:12:41.707Z,25.90
2022-08-16T08:15:25.373Z,25.90
2022-08-16T08:17:55.128Z,26.10
2022-08-16T08:20:31.113Z,26.10
2022-08-16T08:23:03.627Z,26.10
2022-08-16T08:25:54.061Z,26.20
2022-08-16T08:28:25.724Z,26.10
2022-08-16T08:31:02.881Z,26.10
2022-08-16T08:33:36.224Z,26.00
2022-08-16T08:36:11.451Z,26.00
2022-08-16T08:38:53.393Z,26.00
2022-08-16T08:41:28.982Z,26.10
2022-08-16T08:44:01.020Z,26.00
2022-08-16T08:47:00.479Z,26.00
2022-08-16T08:49:50.494Z,26.00
2022-08-16T08:52:34.996Z,26.10
2022-08-16T08:55:14.833Z,26.20
2022-08-16T08:57:48.195Z,26.30
2022-08-16T09:00:30.109Z,26.30
2022-08-16T09:03:07.914Z,26.30
2022-08-16T09:05:48.478Z,26.20
2022-08-16T09:08:22.159Z,26.10
2022-08-16T09:11:03.004Z,26.10
2022-08-16T09:13:34.186Z,26.20
2022-08-16T09:16:05.914Z,26.20
2022-08-16T09:18:39.289Z,26.30
2022-08-16T09:21:09.750Z,26.20
2022-08-16T09:23:41.163Z,26.20
2022-08-16T09:26:44.433Z,26.30
2022-08-16T09:29:15.673Z,26.00
2022-08-16T09:31:53.746Z,25.90
2022-08-16T09:34:24.728Z,25.80
2022-08-16T09:36:58.021Z,25.80
2022-08-16T09:39:41.322Z,25.90
2022-08-16T09:42:14.342Z,25.80
2022-08-16T09:45:11.505Z,25.80
2022-08-16T09:47:56.965Z,25.90
2022-08-16T09:50:25.232Z,25.90
2022-08-16T09:52:54.495Z,25.90
2022-08-16T09:55:25.262Z,25.90
2022-08-16T09:57:54.964Z,26.00
2022-08-16T10:00:44.132Z,25.90
2022-08-16T10:03:13.862Z,26.00
2022-08-16T10:05:44.834Z,26.10
2022-08-16T10:08:26.211Z,26.30
2022-08-16T10:11:13.761Z,26.40
2022-08-16T10:13:44.263Z,26.60
2022-08-16T10:19:02.211Z,26.70
2022-08-16T10:21:36.589Z,26.80
2022-08-16T10:24:07.880Z,26.80
2022-08-16T10:27:19.701Z,26.80
2022-08-16T10:29:59.934Z,26.90
2022-08-16T10:32:21.057Z,26.90
2022-08-16T10:34:51.426Z,26.90
2022-08-16T10:37:36.011Z,27.00
2022-08-16T10:40:14.592Z,27.10
2022-08-16T10:42:59.928Z,27.10
2022-08-16T10:45:36.739Z,27.10
2022-08-16T10:48:27.244Z,27.20
2022-08-16T10:50:58.728Z,27.30
2022-08-16T10:53:33.902Z,27.30
2022-08-16T10:56:06.263Z,27.40
2022-08-16T10:59:29.256Z,27.50
2022-08-16T11:02:21.864Z,27.50
2022-08-16T11:11:01.608Z,27.80
2022-08-16T11:13:57.509Z,27.80
2022-08-16T11:19:05.781Z,28.00
2022-08-16T11:24:42.903Z,28.20
2022-08-16T11:27:23.971Z,28.20
2022-08-16T11:30:01.816Z,28.20
2022-08-16T11:32:33.756Z,28.30
2022-08-16T11:35:10.512Z,28.20
2022-08-16T11:40:44.307Z,28.40
2022-08-16T11:43:17.130Z,28.50
2022-08-16T11:45:54.030Z,28.60
2022-08-16T11:48:25.009Z,28.70
2022-08-16T11:50:55.608Z,28.80
2022-08-16T11:53:26.469Z,28.90
2022-08-16T11:55:57.459Z,29.00
2022-08-16T11:58:31.498Z,29.10
2022-08-16T12:01:03.207Z,28.90
2022-08-16T12:03:35.356Z,28.80
2022-08-16T12:06:25.332Z,28.90
2022-08-16T12:09:02.377Z,28.90
2022-08-16T12:11:34.085Z,28.80
2022-08-16T12:14:07.528Z,28.90
2022-08-16T12:16:38.498Z,29.00
2022-08-16T12:19:13.855Z,29.10
2022-08-16T12:21:58.549Z,29.30
2022-08-16T12:24:29.900Z,29.20
2022-08-16T12:27:00.997Z,29.40
2022-08-16T12:29:33.172Z,29.40
2022-08-16T12:32:27.204Z,29.30
2022-08-16T12:34:52.809Z,29.20
2022-08-16T12:37:24.134Z,29.20
2022-08-16T12:39:55.908Z,29.30
2022-08-16T12:42:35.188Z,29.40
2022-08-16T12:45:12.509Z,29.40
2022-08-16T12:48:31.417Z,29.50
2022-08-16T12:50:49.340Z,29.50
2022-08-16T12:53:21.348Z,29.50
2022-08-16T12:55:51.819Z,29.60
2022-08-16T12:58:49.052Z,29.60
2022-08-16T13:01:15.009Z,29.60
2022-08-16T13:03:44.849Z,29.60
2022-08-16T13:06:14.731Z,29.70
2022-08-16T13:08:49.526Z,29.70
2022-08-16T13:11:24.022Z,29.60
2022-08-16T13:13:54.887Z,29.50
2022-08-16T13:16:25.942Z,29.50
2022-08-16T13:18:56.746Z,29.50
2022-08-16T13:21:25.997Z,29.20
2022-08-16T13:23:56.400Z,29.10
2022-08-16T13:26:26.757Z,28.90
2022-08-16T13:28:56.698Z,29.00
2022-08-16T13:31:27.317Z,29.10
2022-08-16T13:33:58.895Z,28.90
2022-08-16T13:39:18.206Z,28.70
2022-08-16T13:41:53.724Z,28.70
2022-08-16T13:44:33.118Z,28.80
2022-08-16T13:47:14.232Z,28.80
2022-08-16T13:49:43.799Z,28.90
2022-08-16T13:52:13.716Z,29.00
2022-08-16T13:54:42.813Z,29.00
2022-08-16T13:57:12.620Z,29.00
2022-08-16T13:59:43.419Z,28.80
2022-08-16T14:02:16.247Z,28.60
2022-08-16T14:04:45.577Z,28.70
2022-08-16T14:07:24.321Z,28.60
2022-08-16T14:09:55.284Z,28.70
2022-08-16T14:12:27.477Z,28.70
2022-08-16T14:14:58.178Z,28.80
2022-08-16T14:17:31.246Z,28.80
2022-08-16T14:20:19.983Z,28.90
2022-08-16T14:22:52.358Z,29.00
2022-08-16T14:25:25.337Z,29.10
2022-08-16T14:27:56.319Z,29.10
2022-08-16T14:30:26.162Z,29.00
2022-08-16T14:32:58.256Z,29.00
2022-08-16T14:35:48.322Z,29.20
2022-08-16T14:38:23.463Z,29.30
2022-08-16T14:40:55.076Z,29.40
2022-08-16T14:43:26.017Z,29.40
2022-08-16T14:45:59.335Z,29.30
2022-08-16T14:48:29.886Z,29.40
2022-08-16T14:50:59.190Z,29.40
2022-08-16T14:53:28.995Z,29.40
2022-08-16T14:56:01.812Z,29.30
2022-08-16T14:58:36.836Z,29.30
2022-08-16T15:01:10.412Z,29.30
2022-08-16T15:03:42.304Z,29.40
2022-08-16T15:06:14.776Z,29.50
2022-08-16T15:08:47.395Z,29.60
2022-08-16T15:11:16.910Z,29.70
2022-08-16T15:13:47.498Z,29.60
2022-08-16T15:16:17.149Z,29.30
2022-08-16T15:18:48.903Z,29.30
2022-08-16T15:21:19.278Z,29.30
2022-08-16T15:23:50.902Z,29.30
2022-08-16T15:26:34.774Z,29.50
2022-08-16T15:29:12.471Z,29.50
2022-08-16T15:31:44.374Z,29.40
2022-08-16T15:34:21.915Z,29.30
2022-08-16T15:36:55.483Z,29.30
2022-08-16T15:39:35.727Z,29.30
2022-08-16T15:42:11.365Z,29.20
2022-08-16T15:44:52.136Z,29.30
2022-08-16T15:47:26.293Z,29.30
2022-08-16T15:49:57.994Z,29.30
2022-08-16T15:52:30.658Z,29.30
2022-08-16T15:55:07.507Z,29.20
2022-08-16T15:57:52.495Z,29.30
2022-08-16T16:00:22.245Z,29.40
2022-08-16T16:03:03.443Z,29.40
2022-08-16T16:05:34.016Z,29.40
2022-08-16T16:08:10.922Z,29.40
2022-08-16T16:10:44.285Z,29.40
2022-08-16T16:13:25.070Z,29.30
2022-08-16T16:15:58.437Z,29.30
2022-08-16T16:18:29.985Z,29.30
2022-08-16T16:21:06.906Z,29.30
2022-08-16T16:23:41.081Z,29.40
2022-08-16T16:26:16.743Z,29.40
2022-08-16T16:29:07.887Z,29.30
2022-08-16T16:31:41.390Z,29.40
2022-08-16T16:34:13.402Z,29.30
2022-08-16T16:36:48.681Z,29.30
2022-08-16T16:39:19.250Z,29.30
2022-08-16T16:41:48.367Z,29.30
2022-08-16T16:44:33.882Z,29.30
2022-08-16T16:47:06.859Z,29.30
2022-08-16T16:49:41.595Z,29.30
2022-08-16T16:52:31.244Z,29.20
2022-08-16T16:55:10.600Z,29.20
2022-08-16T16:57:57.602Z,29.00
2022-08-16T17:00:38.130Z,29.00
2022-08-16T17:03:17.034Z,28.90
2022-08-16T17:05:56.923Z,28.90
2022-08-16T17:08:31.710Z,28.90
2022-08-16T17:11:01.189Z,29.10
2022-08-16T17:13:31.437Z,29.00
2022-08-16T17:16:01.371Z,29.10
2022-08-16T17:19:16.094Z,29.10
2022-08-16T17:21:21.917Z,28.90
2022-08-16T17:23:59.612Z,28.90
2022-08-16T17:26:31.034Z,29.00
2022-08-16T17:29:02.687Z,29.00
2022-08-16T17:31:43.741Z,29.00
2022-08-16T17:34:28.823Z,29.00
2022-08-16T17:37:05.178Z,29.00
2022-08-16T17:39:58.136Z,28.90
2022-08-16T17:42:28.096Z,28.80
2022-08-16T17:44:57.256Z,28.70
2022-08-16T17:47:26.946Z,28.60
2022-08-16T17:49:56.710Z,28.60
2022-08-16T17:52:26.402Z,28.60
2022-08-16T17:54:58.287Z,28.60
2022-08-16T17:57:27.470Z,28.60
2022-08-16T17:59:57.721Z,28.70
2022-08-16T18:02:43.977Z,28.70
2022-08-16T18:05:16.160Z,28.60
2022-08-16T18:07:45.845Z,28.60
2022-08-16T18:10:29.571Z,28.60
2022-08-16T18:13:03.050Z,28.60
2022-08-16T18:15:32.803Z,28.60
2022-08-16T18:18:02.000Z,28.60
2022-08-16T18:20:48.919Z,28.60
2022-08-16T18:23:21.935Z,28.60
2022-08-16T18:25:58.441Z,28.60
2022-08-16T18:28:30.070Z,28.60
2022-08-16T18:31:01.231Z,28.60
2022-08-16T18:33:43.586Z,28.50
2022-08-16T18:36:20.420Z,28.50
2022-08-16T18:38:51.855Z,28.30
2022-08-16T18:41:25.087Z,28.20
2022-08-16T18:44:26.162Z,28.00
2022-08-16T18:46:50.811Z,28.10
2022-08-16T18:49:20.670Z,28.10
2022-08-16T18:51:50.667Z,28.00
2022-08-16T18:54:19.952Z,28.00
2022-08-16T18:56:55.531Z,28.00
2022-08-16T18:59:33.083Z,28.00
2022-08-16T19:02:09.251Z,28.00
2022-08-16T19:04:58.712Z,27.90
2022-08-16T19:07:31.114Z,27.80
2022-08-16T19:10:02.434Z,27.70
2022-08-16T19:12:38.417Z,27.60
2022-08-16T19:15:20.588Z,27.60
2022-08-16T19:17:51.866Z,27.50
2022-08-16T19:20:27.307Z,27.40
2022-08-16T19:23:10.679Z,27.30
2022-08-16T19:25:47.198Z,27.30
2022-08-16T19:28:51.452Z,27.20
2022-08-16T19:31:16.132Z,27.10
2022-08-16T19:33:53.466Z,27.00
2022-08-16T19:36:32.254Z,26.90
2022-08-16T19:39:05.858Z,26.80
2022-08-16T19:41:38.150Z,26.70
2022-08-16T19:44:09.923Z,26.60
2022-08-16T19:46:41.677Z,26.50
2022-08-16T19:49:16.249Z,26.50
2022-08-16T19:51:46.103Z,26.40
2022-08-16T19:54:15.266Z,26.40
2022-08-16T19:56:44.684Z,26.30
2022-08-16T19:59:19.372Z,26.20
2022-08-16T20:01:51.735Z,26.10
2022-08-16T20:04:22.759Z,26.10
2022-08-16T20:06:52.855Z,26.00
2022-08-16T20:09:22.942Z,26.00
2022-08-16T20:11:54.270Z,25.90
2022-08-16T20:14:26.451Z,25.90
2022-08-16T20:16:58.397Z,25.80
2022-08-16T20:19:29.429Z,25.80
2022-08-16T20:22:05.968Z,25.70
2022-08-16T20:24:36.518Z,25.60
2022-08-16T20:27:09.614Z,25.50
2022-08-16T20:29:43.491Z,25.40
2022-08-16T20:32:15.582Z,25.40
2022-08-16T20:34:46.983Z,25.30
2022-08-16T20:37:16.728Z,25.30
2022-08-16T20:39:47.853Z,25.20
2022-08-16T20:42:20.198Z,25.20
2022-08-16T20:44:51.981Z,25.20
2022-08-16T20:47:22.978Z,25.10
2022-08-16T20:49:54.012Z,25.00
2022-08-16T20:52:26.378Z,25.00
2022-08-16T20:54:57.278Z,25.00
2022-08-16T20:57:26.355Z,25.00
2022-08-16T20:59:56.835Z,24.90
2022-08-16T21:02:28.199Z,24.80
2022-08-16T21:04:57.322Z,24.80
2022-08-16T21:07:28.714Z,24.80
2022-08-16T21:09:57.832Z,24.80
2022-08-16T21:12:27.639Z,24.70
2022-08-16T21:15:08.711Z,24.60
2022-08-16T21:17:37.830Z,24.50
2022-08-16T21:20:11.631Z,24.40
2022-08-16T21:22:41.599Z,24.30
2022-08-16T21:25:13.006Z,24.30
2022-08-16T21:28:41.020Z,24.30
2022-08-16T21:30:34.428Z,24.30
2022-08-16T21:33:06.655Z,24.30
2022-08-16T21:35:36.337Z,24.20
2022-08-16T21:38:28.754Z,24.20
2022-08-16T21:40:56.051Z,24.10
2022-08-16T21:43:25.525Z,24.10
2022-08-16T21:45:56.151Z,24.10
2022-08-16T21:48:35.238Z,24.00
2022-08-16T21:51:07.825Z,24.00
2022-08-16T21:53:38.107Z,23.80
2022-08-16T21:56:07.843Z,23.80
2022-08-16T21:58:42.184Z,23.80
2022-08-16T22:01:13.108Z,23.80
2022-08-16T22:03:42.469Z,23.70
2022-08-16T22:06:13.948Z,23.70
2022-08-16T22:08:49.170Z,23.70
2022-08-16T22:11:21.177Z,23.60
2022-08-16T22:13:58.030Z,23.60
2022-08-16T22:16:32.593Z,23.50
2022-08-16T22:19:03.027Z,23.40
2022-08-16T22:21:33.963Z,23.30
2022-08-16T22:24:03.918Z,23.30
2022-08-16T22:26:42.845Z,23.30
2022-08-16T22:29:15.077Z,23.20
2022-08-16T22:31:46.270Z,23.20
2022-08-16T22:34:16.437Z,23.20
2022-08-16T22:36:45.696Z,23.20
2022-08-16T22:39:16.070Z,23.10
2022-08-16T22:41:46.014Z,23.10
2022-08-16T22:44:15.564Z,23.10
2022-08-16T22:46:46.275Z,23.00
2022-08-16T22:49:15.479Z,22.90
2022-08-16T22:51:45.084Z,22.90
2022-08-16T22:54:44.032Z,22.80
2022-08-16T22:57:03.946Z,22.70
2022-08-16T22:59:33.703Z,22.70
2022-08-16T23:02:09.335Z,22.60
2022-08-16T23:04:39.262Z,22.60
2022-08-16T23:07:08.339Z,22.60
2022-08-16T23:09:37.470Z,22.60
2022-08-16T23:12:07.461Z,22.60
2022-08-16T23:14:36.607Z,22.60
2022-08-16T23:17:07.525Z,22.50
2022-08-16T23:19:36.613Z,22.40
2022-08-16T23:22:05.932Z,22.40
2022-08-16T23:24:37.209Z,22.40
2022-08-16T23:27:24.498Z,22.40
2022-08-16T23:29:54.325Z,22.40
2022-08-16T23:32:24.886Z,22.30
2022-08-16T23:34:54.414Z,22.30
2022-08-16T23:37:23.528Z,22.20
2022-08-16T23:39:54.454Z,22.10
2022-08-16T23:42:53.209Z,22.10
2022-08-16T23:45:13.241Z,22.10
2022-08-16T23:47:43.875Z,22.10
2022-08-16T23:50:12.942Z,22.00
2022-08-16T23:53:01.393Z,22.00
2022-08-16T23:55:40.993Z,22.00
2022-08-16T23:58:12.822Z,22.00
